Boulder City, Nevada Weather observations

Data are for observation ending at time listed.
 Day   Time    Ave.   Ave.  Ave.  Vector   Max.   Stn.    Total    Solar   Ave.  
  of    of     Air    Rel.  Wind   Wind    Wind   Baro.  Precip.   Rad.    Soil  
Year   Day     Temp.  Hum.  Speed  Dir.    Gust   Pres.                    Temp. 
2015   (PST)    F      %     mph   deg.    mph     mb.     in.     W/m2     F   
------------------------------------------------------------------------------
 110    1:50   68.8    12    2.5   205      4.2   924.7    0.00       0    76.1
 110    2:00   68.1    12    3.8   156      5.4   924.8    0.00       0    76.0
 110    2:10   68.5    13    3.9   196      6.2   924.9    0.00       0    75.9
 110    2:20   68.5    13    4.0   188      6.6   924.9    0.00       0    75.8
 110    2:30   68.7    13    4.4   186      8.8   924.9    0.00       0    75.7
 110    2:40   67.5    13    2.6   196      4.8   925.0    0.00       0    75.6
 110    2:50   65.8    14    2.7   187      4.5   925.0    0.00       0    75.5
 110    3:00   64.9    14    2.7   202      3.9   924.9    0.00       0    75.4
 110    3:10   65.0    15    2.7   200      4.2   924.8    0.00       0    75.3
 110    3:20   64.7    15    3.0   191      4.4   924.7    0.00       0    75.2
 110    3:30   64.4    15    2.7   198      3.9   924.7    0.00       0    75.1
 110    3:40   64.6    15    3.0   187      4.2   924.7    0.00       0    75.0
 110    3:50   65.0    15    3.6   195      5.5   924.7    0.00       0    74.9
 110    4:00   66.3    14    3.6   211      5.1   924.7    0.00       0    74.9
 110    4:10   66.9    14    3.6   218      5.3   924.8    0.00       0    74.8
 110    4:20   66.1    14    2.8   232      4.1   924.9    0.00       0    74.6
 110    4:30   65.0    15    2.7   210      4.2   925.0    0.00       0    74.5
 110    4:40   63.5    16    3.1   196      5.4   925.1    0.00       0    74.4
 110    4:50   63.0    16    3.5   215      5.0   925.1    0.00       0    74.4
 110    5:00   63.9    16    3.5   228      5.0   925.1    0.00       3    74.3
 110    5:10   63.4    16    3.7   202      5.8   925.1    0.00       7    74.1
 110    5:20   64.0    16    3.7   217      5.6   925.2    0.00      19    74.0
 110    5:30   65.9    15    3.3   234      6.2   925.3    0.00      47    73.9
 110    5:40   66.9    15    2.7   208      5.0   925.4    0.00      66    73.9
 110    5:50   67.2    16    2.6   234      3.9   925.6    0.00      73    73.8
 110    6:00   68.0    15    2.3   229      3.9   925.8    0.00     114    73.7
 110    6:10   68.9    15    2.0   215      3.5   926.0    0.00     132    73.6
 110    6:20   69.2    15    2.1   200      4.2   926.1    0.00     218    73.5
 110    6:30   71.2    14    2.8   177      5.0   926.3    0.00     262    73.4
 110    6:40   72.6    14    2.6   206      4.8   926.5    0.00     300    73.4
 110    6:50   73.5    13    3.1   212      4.8   926.8    0.00     340    73.3
 110    7:00   73.9    12    2.4   209      4.0   927.0    0.00     260    73.3
 110    7:10   74.5    12    1.2   213      3.9   927.1    0.00     265    73.2
 110    7:20   75.2    12    2.2   208      4.2   927.2    0.00     454    73.2
 110    7:30   77.3    12    1.6   145      3.4   927.3    0.00     509    73.2
 110    7:40   79.3    11    1.4    64      3.7   927.5    0.00     545    73.2
 110    7:50   78.6    11    1.3    78      3.8   927.7    0.00     577    73.2
 110    8:00   79.6    11    2.3    37      4.5   927.8    0.00     607    73.3
 110    8:10   78.8    11    2.2    44      5.0   927.9    0.00     639    73.4
 110    8:20   80.5    11    1.7    73      4.0   927.9    0.00     668    73.5
 110    8:30   80.6    11    1.8    80      4.1   928.0    0.00     692    73.7
 110    8:40   80.7    11    2.0    25      4.5   928.1    0.00     733    73.8
 110    8:50   81.0    11    2.1    41      5.0   928.1    0.00     754    74.0
 110    9:00   80.5    11    2.6    25      5.2   928.2    0.00     778    74.2
 110    9:10   82.0    11    2.5    51      5.8   928.2    0.00     789    74.5
 110    9:20   82.0    11    2.4    43      5.1   928.3    0.00     776    74.8
 110    9:30   82.9    11    2.1    94      5.8   928.2    0.00     724    75.0
 110    9:40   83.5    11    2.0    50      5.0   928.3    0.00     708    75.4
 110    9:50   83.4    11    3.2    36      7.0   928.3    0.00     465    75.7
 110   10:00   82.7    11    3.5    16      8.1   928.2    0.00      83    76.0
 110   10:10   82.7    11    3.5    20      7.9   928.1    0.00     166    76.4
 110   10:20   82.8    11    3.3    35      8.2   928.0    0.00     494    76.8
 110   10:30   83.4    11    3.8    39      8.6   927.9    0.00     770    77.2
 110   10:40   83.9    11    3.6    23      8.4   927.7    0.00     900    77.6
 110   10:50   83.7    11    4.2    22      7.7   927.6    0.00     905    78.0
 110   11:00   83.9    11    4.1    18      8.8   927.5    0.00     904    78.4
 110   11:10   84.0    11    2.9     6      6.7   927.3    0.00     928    78.8
 110   11:20   85.5    10    2.9    38      6.7   927.2    0.00     870    79.2
 110   11:30   85.7    10    3.7    19      8.9   927.1    0.00     948    79.6
 110   11:40   85.6    10    4.4    24     10.5   927.0    0.00     953    80.0
 110   11:50   87.2     9    3.5    69     10.4   926.9    0.00     952    80.5
 110   12:00   86.9    10    3.3    31      7.5   926.8    0.00     949    80.9
 110   12:10   87.9     9    3.6    42      8.2   926.6    0.00     941    81.3
 110   12:20   89.0     9    4.1   109      8.3   926.6    0.00     935    81.7
 110   12:30   89.2     8    2.6    49      6.9   926.5    0.00     929    82.1
 110   12:40   89.1     8    3.9    63     11.1   926.4    0.00     918    82.5
 110   12:50   89.1     8    4.8   171     12.6   926.3    0.00     911    82.8
 110   13:00   88.8     8    4.2   175     14.0   926.2    0.00     897    83.2
 110   13:10   88.9     8    2.9   161     10.0   926.1    0.00     886    83.5
 110   13:20   90.1     8    3.8   134      9.9   925.9    0.00     873    83.7
 110   13:30   89.4     8    5.1    90     11.5   925.8    0.00     861    84.0
 110   13:40   89.6     8    4.2   178     10.5   925.7    0.00     857    84.2
 110   13:50   90.1     8    5.6   126     13.9   925.7    0.00     847    84.4
 110   14:00   90.1     7    4.7   151     13.7   925.7    0.00     684    84.6
 110   14:10   88.4     8    3.5   208     10.7   925.6    0.00     527    84.7
 110   14:20   87.2     8    2.1    40      8.6   925.4    0.00     130    84.8
 110   14:30   86.5     8    8.0   153     17.9   925.0    0.00     463    84.8
 110   14:40   88.0     8    6.9   155     14.0   924.9    0.00     589    84.9
 110   14:50   88.4     8    5.1   152     12.6   924.7    0.00     368    85.0
 110   15:00   86.2     8    4.2   180     11.2   924.7    0.00      95    85.0
 110   15:10   85.6     8    3.5   145      8.6   924.5    0.00     178    85.0
 110   15:20   85.9     8    7.1   170     13.7   924.3    0.00     197    85.0
 110   15:30   86.0     8    6.0   170     13.8   924.3    0.00     393    85.0
 110   15:40   86.8     8    5.4   156     14.0   924.3    0.00     295    85.0
 110   15:50   87.6     8    4.6   163     11.1   924.2    0.00     492    84.9
 110   16:00   88.3     8    5.5   132     11.3   924.3    0.00     443    84.8
 110   16:10   87.5     8    8.3   152     17.2   924.2    0.00     407    84.8
 110   16:20   87.9     8    6.5   185     12.3   924.2    0.00     378    84.6
 110   16:30   87.4     8    7.2   183     13.8   924.2    0.00     332    84.5
 110   16:40   86.8     8    7.1   181     16.6   924.1    0.00     294    84.4
 110   16:50   86.5     8    7.9   160     14.5   923.9    0.00     257    84.3
 110   17:00   85.9     8    8.9   179     18.3   923.9    0.00     223    84.2
 110   17:10   85.8     8    5.6   173     11.5   923.8    0.00     188    84.1
 110   17:20   85.2     8    4.5   170     14.9   923.7    0.00     154    84.0
 110   17:30   84.3     8    5.4   167     12.3   923.7    0.00     123    83.8
 110   17:40   83.6     8    6.0   172     17.3   923.6    0.00      59    83.7
 110   17:50   83.0     8    3.2   161     12.0   923.6    0.00      26    83.6
 110   18:00   82.4     9    5.4   170     12.7   923.6    0.00      18    83.4
 110   18:10   82.0     9    4.9   182     11.2   923.6    0.00      12    83.3
 110   18:20   81.5     9    5.4   184     11.5   923.6    0.00       7    83.2
 110   18:30   81.0    10    4.7   182     10.7   923.6    0.00       1    83.1
 110   18:40   80.7    10    5.2   184     11.2   923.6    0.00       0    83.0
 110   18:50   80.4    10    5.8   189     11.2   923.7    0.00       0    82.8
 110   19:00   80.0    10    6.2   180     15.0   923.9    0.00       0    82.7
 110   19:10   79.7    10    5.5   176     13.5   924.0    0.00       0    82.5
 110   19:20   79.0    10    4.4   204      8.3   924.1    0.00       0    82.4
 110   19:30   77.9    11    3.6   221      6.9   924.2    0.00       0    82.3
 110   19:40   77.3    11    4.5   211      7.5   924.3    0.00       0    82.1
 110   19:50   77.2    11    5.0   199      9.7   924.4    0.00       0    82.0
 110   20:00   77.1    10    5.8   195     11.5   924.5    0.00       0    81.9
 110   20:10   76.6    11    5.7   219     10.5   924.6    0.00       0    81.8
 110   20:20   76.0    11    5.2   208      8.3   924.6    0.00       0    81.6
 110   20:30   75.5    11    4.8   223      8.0   924.7    0.00       0    81.5
 110   20:40   74.7    11    5.4   228      8.0   924.7    0.00       0    81.4
 110   20:50   74.2    11    5.3   225      7.9   924.7    0.00       0    81.2
 110   21:00   73.9    11    5.1   223      8.0   924.6    0.00       0    81.1
 110   21:10   74.5    11    5.0   217      8.4   924.6    0.00       0    81.0
 110   21:20   74.2    11    6.1   232      9.1   924.6    0.00       0    80.8
 110   21:30   73.6    11    5.7   222      8.2   924.5    0.00       0    80.7
 110   21:40   73.3    11    5.8   226      8.3   924.5    0.00       0    80.6
 110   21:50   72.1    11    4.9   220      7.8   924.6    0.00       0    80.5
 110   22:00   71.6    12    5.0   228      6.9   924.5    0.00       0    80.3
 110   22:10   71.7    12    4.8   236      7.3   924.5    0.00       0    80.2
 110   22:20   72.0    11    5.0   233      7.2   924.5    0.00       0    80.0
 110   22:30   72.0    11    5.6   239      8.3   924.5    0.00       0    80.0
 110   22:40   72.2    11    5.4   234      8.6   924.6    0.00       0    79.8
 110   22:50   72.4    11    5.3   235      8.3   924.6    0.00       0    79.7
 110   23:00   72.0    11    5.0   222      9.5   924.7    0.00       0    79.6
 110   23:10   71.6    11    4.0   214      6.0   924.7    0.00       0    79.5
 110   23:20   71.4    12    4.2   217      7.2   924.8    0.00       0    79.3
 110   23:30   70.4    12    3.8   212      7.1   924.8    0.00       0    79.2
 110   23:40   70.1    12    3.6   201      5.8   924.8    0.00       0    79.1
 110   23:50   70.0    12    4.5   228      6.8   924.7    0.00       0    78.9
 111    0:00   70.2    12    5.0   243      7.4   924.7    0.00       0    78.8
 111    0:10   70.6    12    4.6   247      6.6   924.7    0.00       0    78.7
 111    0:20   70.8    12    3.7   236      6.3   924.7    0.00       0    78.6
 111    0:30   71.0    12    4.6   234      7.9   924.6    0.00       0    78.5
 111    0:40   70.3    12    3.2   220      4.8   924.6    0.00       0    78.4
 111    0:50   68.0    13    2.7   211      3.9   924.5    0.00       0    78.3
 111    1:00   66.2    14    2.7   211      3.7   924.4    0.00       0    78.1
 111    1:10   65.4    15    2.4   200      3.3   924.3    0.00       0    78.0
 111    1:20   65.7    14    2.8   194      4.5   924.2    0.00       0    77.9
 111    1:30   65.6    15    2.9   212      4.3   924.2    0.00       0    77.8
 111    1:40   65.9    14    2.9   205      5.3   924.2    0.00       0    77.7

Return to Boulder City, Nevada graphs page.


Western Regional Climate Center,wrcc@dri.edu